sensor_id;sensor_type;location;lat;lon;timestamp;pressure;altitude;pressure_sealevel;temperature;humidity
6030;BME280;3043;42.682;23.376;2023-04-10T00:02:17;95037.28;;;8.05;100.00
6030;BME280;3043;42.682;23.376;2023-04-10T00:04:42;95042.44;;;8.05;100.00
6030;BME280;3043;42.682;23.376;2023-04-10T00:07:08;95040.66;;;8.10;100.00
6030;BME280;3043;42.682;23.376;2023-04-10T00:09:33;95037.19;;;8.11;100.00
6030;BME280;3043;42.682;23.376;2023-04-10T00:11:59;95034.63;;;8.10;100.00
6030;BME280;3043;42.682;23.376;2023-04-10T00:14:25;95033.81;;;8.09;100.00
6030;BME280;3043;42.682;23.376;2023-04-10T00:16:50;95030.38;;;8.07;100.00
6030;BME280;3043;42.682;23.376;2023-04-10T00:19:16;95032.13;;;8.05;100.00
6030;BME280;3043;42.682;23.376;2023-04-10T00:21:42;95034.78;;;7.99;100.00
6030;BME280;3043;42.682;23.376;2023-04-10T00:24:07;95035.63;;;8.01;100.00
6030;BME280;3043;42.682;23.376;2023-04-10T00:26:34;95042.44;;;8.05;100.00
6030;BME280;3043;42.682;23.376;2023-04-10T00:29:00;95045.84;;;8.07;100.00
6030;BME280;3043;42.682;23.376;2023-04-10T00:31:25;95034.63;;;8.10;100.00
6030;BME280;3043;42.682;23.376;2023-04-10T00:33:51;95039.84;;;8.07;100.00
6030;BME280;3043;42.682;23.376;2023-04-10T00:36:17;95042.34;;;8.11;100.00
6030;BME280;3043;42.682;23.376;2023-04-10T00:38:43;95044.88;;;8.14;100.00
6030;BME280;3043;42.682;23.376;2023-04-10T00:41:08;95050.00;;;8.17;100.00
6030;BME280;3043;42.682;23.376;2023-04-10T00:43:34;95041.44;;;8.15;100.00
6030;BME280;3043;42.682;23.376;2023-04-10T00:45:59;95044.88;;;8.14;100.00
6030;BME280;3043;42.682;23.376;2023-04-10T00:48:25;95040.59;;;8.13;100.00
6030;BME280;3043;42.682;23.376;2023-04-10T00:50:51;95035.41;;;8.16;100.00
6030;BME280;3043;42.682;23.376;2023-04-10T00:53:17;95030.19;;;8.19;100.00
6030;BME280;3043;42.682;23.376;2023-04-10T00:55:43;95030.19;;;8.19;100.00
6030;BME280;3043;42.682;23.376;2023-04-10T00:58:09;95018.19;;;8.18;100.00
6030;BME280;3043;42.682;23.376;2023-04-10T01:00:39;95012.22;;;8.15;100.00
6030;BME280;3043;42.682;23.376;2023-04-10T01:03:06;95003.59;;;8.16;100.00
6030;BME280;3043;42.682;23.376;2023-04-10T01:05:42;94995.84;;;8.17;100.00
6030;BME280;3043;42.682;23.376;2023-04-10T01:08:41;94984.03;;;8.04;100.00
6030;BME280;3043;42.682;23.376;2023-04-10T01:13:51;94990.69;;;8.17;100.00
6030;BME280;3043;42.682;23.376;2023-04-10T01:16:25;94987.31;;;8.15;100.00
6030;BME280;3043;42.682;23.376;2023-04-10T01:19:00;94989.97;;;8.09;100.00
6030;BME280;3043;42.682;23.376;2023-04-10T01:21:28;94991.72;;;8.07;100.00
6030;BME280;3043;42.682;23.376;2023-04-10T01:24:28;94984.91;;;8.05;100.00
6030;BME280;3043;42.682;23.376;2023-04-10T01:29:28;94983.91;;;8.13;100.00
6030;BME280;3043;42.682;23.376;2023-04-10T01:32:09;94986.38;;;8.19;100.00
6030;BME280;3043;42.682;23.376;2023-04-10T01:34:53;94982.97;;;8.16;100.00
6030;BME280;3043;42.682;23.376;2023-04-10T01:37:26;94988.88;;;8.25;100.00
6030;BME280;3043;42.682;23.376;2023-04-10T01:39:58;94990.56;;;8.29;100.00
6030;BME280;3043;42.682;23.376;2023-04-10T01:42:27;94990.50;;;8.32;100.00
6030;BME280;3043;42.682;23.376;2023-04-10T01:44:53;94991.38;;;8.31;100.00
6030;BME280;3043;42.682;23.376;2023-04-10T01:47:21;94995.72;;;8.29;100.00
6030;BME280;3043;42.682;23.376;2023-04-10T01:49:47;94989.59;;;8.35;100.00
6030;BME280;3043;42.682;23.376;2023-04-10T01:52:15;94989.44;;;8.45;100.00
6030;BME280;3043;42.682;23.376;2023-04-10T01:54:42;94992.06;;;8.42;100.00
6030;BME280;3043;42.682;23.376;2023-04-10T01:57:09;95001.41;;;8.48;100.00
6030;BME280;3043;42.682;23.376;2023-04-10T01:59:38;95005.78;;;8.44;100.00
6030;BME280;3043;42.682;23.376;2023-04-10T02:02:03;94998.25;;;8.32;100.00
6030;BME280;3043;42.682;23.376;2023-04-10T02:04:31;94992.25;;;8.30;100.00
6030;BME280;3043;42.682;23.376;2023-04-10T02:07:12;94987.06;;;8.33;100.00
6030;BME280;3043;42.682;23.376;2023-04-10T02:09:45;94986.31;;;8.25;100.00
6030;BME280;3043;42.682;23.376;2023-04-10T02:12:15;94980.56;;;8.07;100.00
6030;BME280;3043;42.682;23.376;2023-04-10T02:14:45;94966.69;;;8.15;100.00
6030;BME280;3043;42.682;23.376;2023-04-10T02:17:13;94962.34;;;8.16;100.00
6030;BME280;3043;42.682;23.376;2023-04-10T02:19:40;94958.72;;;8.32;100.00
6030;BME280;3043;42.682;23.376;2023-04-10T02:22:07;94959.63;;;8.29;100.00
6030;BME280;3043;42.682;23.376;2023-04-10T02:24:33;94950.91;;;8.36;100.00
6030;BME280;3043;42.682;23.376;2023-04-10T02:26:59;94964.47;;;8.47;100.00
6030;BME280;3043;42.682;23.376;2023-04-10T02:29:25;94953.25;;;8.48;100.00
6030;BME280;3043;42.682;23.376;2023-04-10T02:31:51;94957.38;;;8.58;100.00
6030;BME280;3043;42.682;23.376;2023-04-10T02:34:16;94951.28;;;8.64;100.00
6030;BME280;3043;42.682;23.376;2023-04-10T02:36:42;94952.00;;;8.70;100.00
6030;BME280;3043;42.682;23.376;2023-04-10T02:39:07;94955.47;;;8.69;100.00
6030;BME280;3043;42.682;23.376;2023-04-10T02:41:33;94946.06;;;8.67;100.00
6030;BME280;3043;42.682;23.376;2023-04-10T02:43:58;94941.06;;;8.58;100.00
6030;BME280;3043;42.682;23.376;2023-04-10T02:46:24;94938.44;;;8.61;100.00
6030;BME280;3043;42.682;23.376;2023-04-10T02:48:51;94937.56;;;8.60;100.00
6030;BME280;3043;42.682;23.376;2023-04-10T02:51:17;94937.50;;;8.63;100.00
6030;BME280;3043;42.682;23.376;2023-04-10T02:53:42;94947.09;;;8.55;100.00
6030;BME280;3043;42.682;23.376;2023-04-10T02:56:08;94932.47;;;8.57;100.00
6030;BME280;3043;42.682;23.376;2023-04-10T02:58:36;94932.44;;;8.59;100.00
6030;BME280;3043;42.682;23.376;2023-04-10T03:01:01;94934.09;;;8.61;100.00
6030;BME280;3043;42.682;23.376;2023-04-10T03:03:27;94929.84;;;8.60;100.00
6030;BME280;3043;42.682;23.376;2023-04-10T03:05:52;94940.41;;;8.45;100.00
6030;BME280;3043;42.682;23.376;2023-04-10T03:08:18;94949.25;;;8.32;100.00
6030;BME280;3043;42.682;23.376;2023-04-10T03:10:44;94941.66;;;8.22;100.00
6030;BME280;3043;42.682;23.376;2023-04-10T03:13:10;94940.97;;;8.12;100.00
6030;BME280;3043;42.682;23.376;2023-04-10T03:15:36;94942.84;;;8.01;100.00
6030;BME280;3043;42.682;23.376;2023-04-10T03:18:03;94931.03;;;7.88;100.00
6030;BME280;3043;42.682;23.376;2023-04-10T03:20:30;94939.59;;;7.89;100.00
6030;BME280;3043;42.682;23.376;2023-04-10T03:22:56;94942.06;;;7.95;100.00
6030;BME280;3043;42.682;23.376;2023-04-10T03:25:22;94944.53;;;8.02;100.00
6030;BME280;3043;42.682;23.376;2023-04-10T03:27:47;94941.06;;;8.06;100.00
6030;BME280;3043;42.682;23.376;2023-04-10T03:30:12;94942.94;;;7.95;100.00
6030;BME280;3043;42.682;23.376;2023-04-10T03:32:38;94949.25;;;7.76;100.00
6030;BME280;3043;42.682;23.376;2023-04-10T03:35:06;94943.41;;;7.65;100.00
6030;BME280;3043;42.682;23.376;2023-04-10T03:37:32;94945.13;;;7.63;100.00
6030;BME280;3043;42.682;23.376;2023-04-10T03:39:57;94952.03;;;7.61;100.00
6030;BME280;3043;42.682;23.376;2023-04-10T03:42:23;94945.22;;;7.57;100.00
6030;BME280;3043;42.682;23.376;2023-04-10T03:44:48;94952.09;;;7.55;100.00
6030;BME280;3043;42.682;23.376;2023-04-10T03:47:14;94944.56;;;7.42;100.00
6030;BME280;3043;42.682;23.376;2023-04-10T03:49:39;94951.59;;;7.31;100.00
6030;BME280;3043;42.682;23.376;2023-04-10T03:52:05;94949.13;;;7.23;100.00
6030;BME280;3043;42.682;23.376;2023-04-10T03:54:30;94942.31;;;7.19;100.00
6030;BME280;3043;42.682;23.376;2023-04-10T03:56:56;94957.00;;;7.09;100.00
6030;BME280;3043;42.682;23.376;2023-04-10T03:59:21;94957.00;;;7.09;100.00
6030;BME280;3043;42.682;23.376;2023-04-10T04:01:47;94954.47;;;7.05;100.00
6030;BME280;3043;42.682;23.376;2023-04-10T04:04:12;94952.75;;;7.07;100.00
6030;BME280;3043;42.682;23.376;2023-04-10T04:06:38;94956.25;;;7.03;100.00
6030;BME280;3043;42.682;23.376;2023-04-10T04:09:03;94965.69;;;7.01;100.00
6030;BME280;3043;42.682;23.376;2023-04-10T04:11:28;94969.00;;;7.12;100.00
6030;BME280;3043;42.682;23.376;2023-04-10T04:13:55;94959.56;;;7.11;100.00
6030;BME280;3043;42.682;23.376;2023-04-10T04:16:21;94961.25;;;7.15;100.00
6030;BME280;3043;42.682;23.376;2023-04-10T04:18:46;94957.56;;;7.34;100.00
6030;BME280;3043;42.682;23.376;2023-04-10T04:21:11;94955.63;;;7.51;100.00
6030;BME280;3043;42.682;23.376;2023-04-10T04:23:37;94957.19;;;7.61;100.00
6030;BME280;3043;42.682;23.376;2023-04-10T04:26:02;94957.00;;;7.76;100.00
6030;BME280;3043;42.682;23.376;2023-04-10T04:28:28;94957.59;;;7.92;100.00
6030;BME280;3043;42.682;23.376;2023-04-10T04:30:53;94963.75;;;7.83;100.00
6030;BME280;3043;42.682;23.376;2023-04-10T04:33:19;94953.91;;;8.09;100.00
6030;BME280;3043;42.682;23.376;2023-04-10T04:35:44;94960.34;;;8.84;100.00
6030;BME280;3043;42.682;23.376;2023-04-10T04:38:09;94963.19;;;9.15;100.00
6030;BME280;3043;42.682;23.376;2023-04-10T04:40:35;94967.38;;;9.62;100.00
6030;BME280;3043;42.682;23.376;2023-04-10T04:43:00;94980.91;;;10.49;100.00
6030;BME280;3043;42.682;23.376;2023-04-10T04:45:26;94986.22;;;11.10;100.00
6030;BME280;3043;42.682;23.376;2023-04-10T04:47:51;94991.66;;;11.64;100.00
6030;BME280;3043;42.682;23.376;2023-04-10T04:50:17;94996.88;;;11.62;100.00
6030;BME280;3043;42.682;23.376;2023-04-10T04:52:42;95001.47;;;11.83;100.00
6030;BME280;3043;42.682;23.376;2023-04-10T04:55:08;95001.47;;;12.11;100.00
6030;BME280;3043;42.682;23.376;2023-04-10T04:57:34;95003.63;;;12.52;100.00
6030;BME280;3043;42.682;23.376;2023-04-10T04:59:59;95002.13;;;12.73;100.00
6030;BME280;3043;42.682;23.376;2023-04-10T05:02:25;95008.19;;;12.98;100.00
6030;BME280;3043;42.682;23.376;2023-04-10T05:04:50;95014.78;;;13.57;100.00
6030;BME280;3043;42.682;23.376;2023-04-10T05:07:16;95014.13;;;13.75;100.00
6030;BME280;3043;42.682;23.376;2023-04-10T05:09:41;95010.75;;;13.73;100.00
6030;BME280;3043;42.682;23.376;2023-04-10T05:12:06;95016.28;;;14.10;100.00
6030;BME280;3043;42.682;23.376;2023-04-10T05:14:32;95019.66;;;14.58;100.00
6030;BME280;3043;42.682;23.376;2023-04-10T05:16:57;95016.50;;;14.50;100.00
6030;BME280;3043;42.682;23.376;2023-04-10T05:19:23;95009.75;;;14.66;100.00
6030;BME280;3043;42.682;23.376;2023-04-10T05:21:48;95016.88;;;15.04;100.00
6030;BME280;3043;42.682;23.376;2023-04-10T05:24:13;95016.50;;;15.33;100.00
6030;BME280;3043;42.682;23.376;2023-04-10T05:26:39;95013.66;;;15.59;99.74
6030;BME280;3043;42.682;23.376;2023-04-10T05:29:06;95016.28;;;15.98;97.56
6030;BME280;3043;42.682;23.376;2023-04-10T05:31:32;95016.84;;;16.79;92.07
6030;BME280;3043;42.682;23.376;2023-04-10T05:33:57;95007.94;;;16.83;84.93
6030;BME280;3043;42.682;23.376;2023-04-10T05:36:23;95011.00;;;16.91;85.53
6030;BME280;3043;42.682;23.376;2023-04-10T05:38:48;95017.50;;;17.35;80.51
6030;BME280;3043;42.682;23.376;2023-04-10T05:41:14;95010.78;;;17.48;76.93
6030;BME280;3043;42.682;23.376;2023-04-10T05:43:39;95010.97;;;17.77;75.26
6030;BME280;3043;42.682;23.376;2023-04-10T05:46:05;95014.47;;;18.11;72.60
6030;BME280;3043;42.682;23.376;2023-04-10T05:48:30;95020.47;;;18.45;69.10
6030;BME280;3043;42.682;23.376;2023-04-10T05:50:56;95022.00;;;18.80;65.38
6030;BME280;3043;42.682;23.376;2023-04-10T05:53:28;95020.19;;;19.27;63.03
6030;BME280;3043;42.682;23.376;2023-04-10T05:55:56;95019.84;;;19.48;60.60
6030;BME280;3043;42.682;23.376;2023-04-10T05:58:21;95021.22;;;19.69;59.07
6030;BME280;3043;42.682;23.376;2023-04-10T06:00:47;95026.47;;;19.83;57.17
6030;BME280;3043;42.682;23.376;2023-04-10T06:03:12;95024.31;;;19.31;55.75
6030;BME280;3043;42.682;23.376;2023-04-10T06:05:38;95029.38;;;19.34;55.16
6030;BME280;3043;42.682;23.376;2023-04-10T06:08:05;95025.53;;;18.79;56.96
6030;BME280;3043;42.682;23.376;2023-04-10T06:10:31;95019.72;;;18.26;57.97
6030;BME280;3043;42.682;23.376;2023-04-10T06:12:57;95018.06;;;17.24;62.15
6030;BME280;3043;42.682;23.376;2023-04-10T06:15:22;95017.66;;;16.98;64.43
6030;BME280;3043;42.682;23.376;2023-04-10T06:17:48;95016.59;;;16.66;66.48
6030;BME280;3043;42.682;23.376;2023-04-10T06:20:13;95027.59;;;15.78;73.63
6030;BME280;3043;42.682;23.376;2023-04-10T06:22:38;95023.19;;;15.99;72.33
6030;BME280;3043;42.682;23.376;2023-04-10T06:25:05;95021.47;;;15.79;74.39
6030;BME280;3043;42.682;23.376;2023-04-10T06:27:32;95018.88;;;15.59;76.97
6030;BME280;3043;42.682;23.376;2023-04-10T06:29:57;95019.69;;;15.20;80.10
6030;BME280;3043;42.682;23.376;2023-04-10T06:32:23;95015.66;;;14.71;85.08
6030;BME280;3043;42.682;23.376;2023-04-10T06:34:48;95014.84;;;14.69;85.11
6030;BME280;3043;42.682;23.376;2023-04-10T06:37:14;95009.81;;;14.86;82.66
6030;BME280;3043;42.682;23.376;2023-04-10T06:39:39;95019.53;;;14.61;84.49
6030;BME280;3043;42.682;23.376;2023-04-10T06:42:05;95016.88;;;13.95;89.91
6030;BME280;3043;42.682;23.376;2023-04-10T06:44:30;95024.69;;;13.23;97.13
6030;BME280;3043;42.682;23.376;2023-04-10T06:46:56;95025.84;;;13.39;96.94
6030;BME280;3043;42.682;23.376;2023-04-10T06:49:21;95028.00;;;12.76;100.00
6030;BME280;3043;42.682;23.376;2023-04-10T06:51:47;95031.94;;;12.59;100.00
6030;BME280;3043;42.682;23.376;2023-04-10T06:54:13;95027.38;;;12.68;100.00
6030;BME280;3043;42.682;23.376;2023-04-10T06:56:38;95027.34;;;12.41;100.00
6030;BME280;3043;42.682;23.376;2023-04-10T06:59:04;95025.06;;;12.58;100.00
6030;BME280;3043;42.682;23.376;2023-04-10T07:01:29;95032.63;;;12.38;100.00
6030;BME280;3043;42.682;23.376;2023-04-10T07:03:54;95037.78;;;12.11;100.00
6030;BME280;3043;42.682;23.376;2023-04-10T07:06:20;95031.13;;;11.73;100.00
6030;BME280;3043;42.682;23.376;2023-04-10T07:08:47;95035.34;;;12.06;100.00
6030;BME280;3043;42.682;23.376;2023-04-10T07:11:13;95036.59;;;12.22;100.00
6030;BME280;3043;42.682;23.376;2023-04-10T07:13:39;95032.75;;;12.06;100.00
6030;BME280;3043;42.682;23.376;2023-04-10T07:16:05;95035.56;;;11.99;100.00
6030;BME280;3043;42.682;23.376;2023-04-10T07:18:32;95030.59;;;12.20;100.00
6030;BME280;3043;42.682;23.376;2023-04-10T07:20:59;95043.34;;;11.99;100.00
6030;BME280;3043;42.682;23.376;2023-04-10T07:23:25;95038.84;;;12.05;100.00
6030;BME280;3043;42.682;23.376;2023-04-10T07:25:50;95041.66;;;11.98;100.00
6030;BME280;3043;42.682;23.376;2023-04-10T07:28:16;95040.72;;;12.00;100.00
6030;BME280;3043;42.682;23.376;2023-04-10T07:30:41;95040.78;;;11.97;100.00
6030;BME280;3043;42.682;23.376;2023-04-10T07:33:07;95037.59;;;11.89;100.00
6030;BME280;3043;42.682;23.376;2023-04-10T07:35:32;95032.47;;;12.15;100.00
6030;BME280;3043;42.682;23.376;2023-04-10T07:37:58;95037.16;;;12.32;100.00
6030;BME280;3043;42.682;23.376;2023-04-10T07:40:23;95032.16;;;12.53;100.00
6030;BME280;3043;42.682;23.376;2023-04-10T07:42:49;95039.75;;;12.86;100.00
6030;BME280;3043;42.682;23.376;2023-04-10T07:45:14;95036.09;;;12.93;100.00
6030;BME280;3043;42.682;23.376;2023-04-10T07:47:40;95036.50;;;13.07;100.00
6030;BME280;3043;42.682;23.376;2023-04-10T07:50:06;95037.84;;;13.18;100.00
6030;BME280;3043;42.682;23.376;2023-04-10T07:52:32;95040.72;;;13.11;100.00
6030;BME280;3043;42.682;23.376;2023-04-10T07:55:01;95034.34;;;13.44;100.00
6030;BME280;3043;42.682;23.376;2023-04-10T07:57:26;95035.59;;;13.57;100.00
6030;BME280;3043;42.682;23.376;2023-04-10T07:59:52;95028.38;;;13.65;99.57
6030;BME280;3043;42.682;23.376;2023-04-10T08:02:17;95030.28;;;13.37;100.00
6030;BME280;3043;42.682;23.376;2023-04-10T08:04:42;95032.91;;;13.11;100.00
6030;BME280;3043;42.682;23.376;2023-04-10T08:07:08;95030.22;;;12.86;100.00
6030;BME280;3043;42.682;23.376;2023-04-10T08:09:33;95036.13;;;12.65;100.00
6030;BME280;3043;42.682;23.376;2023-04-10T08:11:59;95039.53;;;12.39;100.00
6030;BME280;3043;42.682;23.376;2023-04-10T08:14:24;95026.28;;;12.21;100.00
6030;BME280;3043;42.682;23.376;2023-04-10T08:16:50;95034.69;;;12.27;100.00
6030;BME280;3043;42.682;23.376;2023-04-10T08:19:15;95027.78;;;12.55;100.00
6030;BME280;3043;42.682;23.376;2023-04-10T08:21:41;95025.97;;;12.57;100.00
6030;BME280;3043;42.682;23.376;2023-04-10T08:24:06;95037.53;;;12.47;100.00
6030;BME280;3043;42.682;23.376;2023-04-10T08:26:32;95032.94;;;12.83;100.00
6030;BME280;3043;42.682;23.376;2023-04-10T08:28:58;95028.03;;;12.74;100.00
6030;BME280;3043;42.682;23.376;2023-04-10T08:31:26;95030.94;;;12.65;100.00
6030;BME280;3043;42.682;23.376;2023-04-10T08:33:52;95032.53;;;12.41;100.00
6030;BME280;3043;42.682;23.376;2023-04-10T08:36:17;95031.78;;;12.10;100.00
6030;BME280;3043;42.682;23.376;2023-04-10T08:38:44;95032.47;;;11.88;100.00
6030;BME280;3043;42.682;23.376;2023-04-10T08:41:10;95025.50;;;11.88;100.00
6030;BME280;3043;42.682;23.376;2023-04-10T08:43:37;95031.00;;;12.07;100.00
6030;BME280;3043;42.682;23.376;2023-04-10T08:46:02;95021.41;;;12.10;100.00
6030;BME280;3043;42.682;23.376;2023-04-10T08:48:34;95020.94;;;12.25;100.00
6030;BME280;3043;42.682;23.376;2023-04-10T08:51:03;95019.34;;;12.20;100.00
6030;BME280;3043;42.682;23.376;2023-04-10T08:53:30;95027.72;;;12.29;100.00
6030;BME280;3043;42.682;23.376;2023-04-10T08:56:00;95030.06;;;12.09;100.00
6030;BME280;3043;42.682;23.376;2023-04-10T08:58:28;95030.88;;;12.11;100.00
6030;BME280;3043;42.682;23.376;2023-04-10T09:00:54;95017.53;;;12.23;100.00
6030;BME280;3043;42.682;23.376;2023-04-10T09:03:20;95026.31;;;12.19;100.00
6030;BME280;3043;42.682;23.376;2023-04-10T09:05:45;95017.81;;;12.14;100.00
6030;BME280;3043;42.682;23.376;2023-04-10T09:08:13;95019.19;;;11.98;100.00
6030;BME280;3043;42.682;23.376;2023-04-10T09:10:39;95026.50;;;11.84;100.00
6030;BME280;3043;42.682;23.376;2023-04-10T09:13:04;95021.94;;;11.63;100.00
6030;BME280;3043;42.682;23.376;2023-04-10T09:15:33;95011.75;;;11.56;100.00
6030;BME280;3043;42.682;23.376;2023-04-10T09:18:15;95014.53;;;11.48;100.00
6030;BME280;3043;42.682;23.376;2023-04-10T09:20:41;95007.38;;;11.56;100.00
6030;BME280;3043;42.682;23.376;2023-04-10T09:23:20;95009.09;;;11.57;100.00
6030;BME280;3043;42.682;23.376;2023-04-10T09:25:46;95021.06;;;11.61;100.00
6030;BME280;3043;42.682;23.376;2023-04-10T09:28:11;95011.91;;;11.50;100.00
6030;BME280;3043;42.682;23.376;2023-04-10T09:30:39;95007.13;;;11.36;100.00
6030;BME280;3043;42.682;23.376;2023-04-10T09:33:24;95013.25;;;11.32;100.00
6030;BME280;3043;42.682;23.376;2023-04-10T09:35:56;95009.63;;;11.39;100.00
6030;BME280;3043;42.682;23.376;2023-04-10T09:38:22;95025.34;;;11.33;100.00
6030;BME280;3043;42.682;23.376;2023-04-10T09:40:48;95006.38;;;11.31;100.00
6030;BME280;3043;42.682;23.376;2023-04-10T09:43:18;95003.22;;;11.20;100.00
6030;BME280;3043;42.682;23.376;2023-04-10T09:46:02;94997.47;;;11.09;100.00
6030;BME280;3043;42.682;23.376;2023-04-10T09:48:27;95008.56;;;11.14;100.00
6030;BME280;3043;42.682;23.376;2023-04-10T09:50:52;95001.78;;;11.10;100.00
6030;BME280;3043;42.682;23.376;2023-04-10T09:53:19;94997.22;;;11.18;100.00
6030;BME280;3043;42.682;23.376;2023-04-10T09:55:46;95005.97;;;11.46;100.00
6030;BME280;3043;42.682;23.376;2023-04-10T09:58:13;94994.84;;;11.73;100.00
6030;BME280;3043;42.682;23.376;2023-04-10T10:00:41;94989.19;;;11.88;100.00
6030;BME280;3043;42.682;23.376;2023-04-10T10:03:12;94987.63;;;12.12;100.00
6030;BME280;3043;42.682;23.376;2023-04-10T10:05:46;94998.84;;;12.12;100.00
6030;BME280;3043;42.682;23.376;2023-04-10T10:08:13;94993.09;;;12.03;100.00
6030;BME280;3043;42.682;23.376;2023-04-10T10:10:47;94978.84;;;12.16;100.00
6030;BME280;3043;42.682;23.376;2023-04-10T10:13:23;94977.34;;;12.36;100.00
6030;BME280;3043;42.682;23.376;2023-04-10T10:15:56;94978.84;;;12.43;100.00
6030;BME280;3043;42.682;23.376;2023-04-10T10:18:31;94980.31;;;12.50;99.77
6030;BME280;3043;42.682;23.376;2023-04-10T10:21:01;94957.38;;;12.65;97.23
6030;BME280;3043;42.682;23.376;2023-04-10T10:23:27;94969.22;;;12.47;94.73
6030;BME280;3043;42.682;23.376;2023-04-10T10:25:53;94971.03;;;12.43;95.31
6030;BME280;3043;42.682;23.376;2023-04-10T10:28:20;94959.56;;;12.50;96.56
6030;BME280;3043;42.682;23.376;2023-04-10T10:30:47;94958.75;;;12.75;94.99
6030;BME280;3043;42.682;23.376;2023-04-10T10:33:14;94955.94;;;12.81;95.86
6030;BME280;3043;42.682;23.376;2023-04-10T10:35:39;94959.03;;;12.92;96.08
6030;BME280;3043;42.682;23.376;2023-04-10T10:38:06;94957.06;;;13.00;95.38
6030;BME280;3043;42.682;23.376;2023-04-10T10:46:28;94938.53;;;13.33;89.30
6030;BME280;3043;42.682;23.376;2023-04-10T10:48:58;94935.03;;;13.34;90.46
6030;BME280;3043;42.682;23.376;2023-04-10T10:51:41;94928.69;;;13.64;90.66
6030;BME280;3043;42.682;23.376;2023-04-10T10:54:32;94935.78;;;13.61;88.27
6030;BME280;3043;42.682;23.376;2023-04-10T10:56:58;94924.00;;;13.74;86.24
6030;BME280;3043;42.682;23.376;2023-04-10T11:02:15;94922.88;;;14.47;81.73
6030;BME280;3043;42.682;23.376;2023-04-10T11:04:42;94918.28;;;14.32;77.61
6030;BME280;3043;42.682;23.376;2023-04-10T11:07:11;94917.41;;;14.53;77.27
6030;BME280;3043;42.682;23.376;2023-04-10T11:09:57;94911.31;;;14.74;75.57
6030;BME280;3043;42.682;23.376;2023-04-10T11:12:24;94902.56;;;15.15;74.25
6030;BME280;3043;42.682;23.376;2023-04-10T11:15:00;94901.19;;;15.27;68.99
6030;BME280;3043;42.682;23.376;2023-04-10T11:17:45;94903.84;;;15.07;67.70
6030;BME280;3043;42.682;23.376;2023-04-10T11:20:11;94892.13;;;14.35;71.57
6030;BME280;3043;42.682;23.376;2023-04-10T11:23:29;94892.69;;;13.77;81.53
6030;BME280;3043;42.682;23.376;2023-04-10T11:25:50;94880.50;;;13.33;89.48
6030;BME280;3043;42.682;23.376;2023-04-10T11:31:16;94881.91;;;12.94;92.85
6030;BME280;3043;42.682;23.376;2023-04-10T11:36:18;94860.72;;;13.06;90.82
6030;BME280;3043;42.682;23.376;2023-04-10T11:38:58;94877.59;;;13.17;91.84
6030;BME280;3043;42.682;23.376;2023-04-10T11:41:27;94873.91;;;13.24;90.60
6030;BME280;3043;42.682;23.376;2023-04-10T11:43:54;94885.69;;;13.33;88.29
6030;BME280;3043;42.682;23.376;2023-04-10T11:46:20;94883.41;;;13.01;88.29
6030;BME280;3043;42.682;23.376;2023-04-10T11:48:46;94895.38;;;12.80;89.06
6030;BME280;3043;42.682;23.376;2023-04-10T11:51:12;94884.00;;;12.33;93.84
6030;BME280;3043;42.682;23.376;2023-04-10T11:53:39;94897.97;;;12.29;94.37
6030;BME280;3043;42.682;23.376;2023-04-10T11:56:13;94889.88;;;12.12;96.45
6030;BME280;3043;42.682;23.376;2023-04-10T11:58:38;94892.16;;;11.95;91.52
6030;BME280;3043;42.682;23.376;2023-04-10T12:01:04;94893.44;;;11.82;93.52
6030;BME280;3043;42.682;23.376;2023-04-10T12:03:34;94895.06;;;11.57;99.05
6030;BME280;3043;42.682;23.376;2023-04-10T12:06:00;94891.09;;;11.44;100.00
6030;BME280;3043;42.682;23.376;2023-04-10T12:08:33;94884.59;;;11.60;100.00
6030;BME280;3043;42.682;23.376;2023-04-10T12:10:59;94877.78;;;11.56;100.00
6030;BME280;3043;42.682;23.376;2023-04-10T12:13:26;94869.97;;;11.30;100.00
6030;BME280;3043;42.682;23.376;2023-04-10T12:15:52;94867.19;;;11.07;100.00
6030;BME280;3043;42.682;23.376;2023-04-10T12:18:20;94897.94;;;10.55;100.00
6030;BME280;3043;42.682;23.376;2023-04-10T12:20:46;94902.53;;;10.44;100.00
6030;BME280;3043;42.682;23.376;2023-04-10T12:23:13;94891.19;;;10.16;100.00
6030;BME280;3043;42.682;23.376;2023-04-10T12:25:38;94892.47;;;9.97;100.00
6030;BME280;3043;42.682;23.376;2023-04-10T12:28:05;94881.50;;;9.89;100.00
6030;BME280;3043;42.682;23.376;2023-04-10T12:30:32;94877.97;;;9.55;100.00
6030;BME280;3043;42.682;23.376;2023-04-10T12:32:57;94874.44;;;9.59;100.00
6030;BME280;3043;42.682;23.376;2023-04-10T12:35:40;94852.84;;;9.23;100.00
6030;BME280;3043;42.682;23.376;2023-04-10T12:38:08;94860.44;;;9.31;100.00
6030;BME280;3043;42.682;23.376;2023-04-10T12:40:33;94877.03;;;9.19;100.00
6030;BME280;3043;42.682;23.376;2023-04-10T12:42:59;94857.78;;;9.34;100.00
6030;BME280;3043;42.682;23.376;2023-04-10T12:45:44;94887.75;;;9.79;100.00
6030;BME280;3043;42.682;23.376;2023-04-10T12:48:09;94872.09;;;9.85;100.00
6030;BME280;3043;42.682;23.376;2023-04-10T12:50:45;94880.38;;;9.99;100.00
6030;BME280;3043;42.682;23.376;2023-04-10T12:53:12;94876.91;;;10.00;100.00
6030;BME280;3043;42.682;23.376;2023-04-10T12:55:39;94862.91;;;10.10;100.00
6030;BME280;3043;42.682;23.376;2023-04-10T12:58:17;94874.06;;;10.44;100.00
6030;BME280;3043;42.682;23.376;2023-04-10T13:00:47;94865.63;;;10.69;100.00
6030;BME280;3043;42.682;23.376;2023-04-10T13:03:12;94865.78;;;11.25;100.00
6030;BME280;3043;42.682;23.376;2023-04-10T13:05:38;94857.22;;;11.50;100.00
6030;BME280;3043;42.682;23.376;2023-04-10T13:08:03;94864.63;;;11.91;100.00
6030;BME280;3043;42.682;23.376;2023-04-10T13:10:29;94863.63;;;12.21;100.00
6030;BME280;3043;42.682;23.376;2023-04-10T13:12:54;94856.31;;;12.58;100.00
6030;BME280;3043;42.682;23.376;2023-04-10T13:15:20;94850.69;;;12.71;100.00
6030;BME280;3043;42.682;23.376;2023-04-10T13:17:45;94840.25;;;12.47;100.00
6030;BME280;3043;42.682;23.376;2023-04-10T13:20:11;94848.53;;;12.58;100.00
6030;BME280;3043;42.682;23.376;2023-04-10T13:22:37;94842.47;;;12.83;100.00
6030;BME280;3043;42.682;23.376;2023-04-10T13:25:03;94838.66;;;13.16;100.00
6030;BME280;3043;42.682;23.376;2023-04-10T13:27:29;94828.97;;;13.21;100.00
6030;BME280;3043;42.682;23.376;2023-04-10T13:29:54;94847.28;;;13.41;100.00